Pagrindinis puslapis
METAR-TAF:

METAR-TAF

Oro uostai :

Truckee-Tahoe Airport

Truckee, Kalifornija, Jungtinės Amerikos Valstijos

platuma: 39-19N, ilguma: 120-08W, Aukštis: 1798 m

Dabartinis oras

Ataskaita buvo paskelbta 30 minutes, ne 22:45 UTC
Vėjas 4 kt iš Šiaurės
Temperatūra 4°C
Drėgmė 35%
Slėgis 1020 hPa
Matomumas: 16.1 km
Giedras dangus

METAR: KTRK 252245Z 01004KT 10SM CLR 04/M10 A3013

Laikas: 15:15 (23:15 UTC)

Prognozė

Ataskaita buvo paskelbta 5 valandos ir 55 minutes, ne 17:20 UTC
Prognozė galioja nuo 25 metu 18 UTC su 26 metu 18 UTC
Vėjas 6 kt iš Šiaurės Rytų
Matomumas: 10 km
Giedras dangus
Nuo 26 metu 0200 UTC
Vėjas 3 kt nuo kintamojo kryptimis
Matomumas: 10 km
Giedras dangus
Nuo 26 metu 0900 UTC
Vėjas kt iš Šiaurės
Matomumas: 10 km
Išsisklaidę debesys ne aukštis 100 ft
Rūkas lopais
Nuo 26 metu 1600 UTC
Vėjas 3 kt nuo kintamojo kryptimis
Matomumas: 10 km
Giedras dangus

TAF: KTRK 251720Z 2518/2618 05006KT P6SM SKC FM260200 VRB03KT P6SM SKC FM260900 00000KT P6SM BCFG SCT001 FM261600 VRB03KT P6SM SKC

Orai ataskaitas ir orų prognozės (METAR, TAF).

turimą stotys yra geltonos ir raudonos taškus žemėlapyje.

Perkelti pele per norėdami pamatyti stoties vardą.

Tada spustelėkite, norėdami matyti oro stebėjimo ir prognozės.

Norėdami pakeisti žemėlapį: spustelėkite ant žalios mygtukų su juodo kryžiaus žemyn,; žalią mygtuką su brūkšneliu, jei norite nutolinti; arba žalių rodyklių gretimoms žemėlapius.


METAR-TAF: